Time;durP1;ratioP1;P1;durP2;ratioP2;P2;SDS_P1;SDS_P2;PMS_P1;PMS_P2;Temp;Humidity;BMP_temperature;BMP_pressure;BME280_temperature;BME280_humidity;BME280_pressure;Samples;Min_cycle;Max_cycle;Signal;HPM_P1;HPM_P2
2023/05/21 00:00:19;;;;;;;0.10;0.10;;;;;;;;;;1027800;28;20027;-77
2023/05/21 00:00:50;;;;;;;0.85;0.43;;;;;;;;;;1025926;28;20110;-76
2023/05/21 00:01:22;;;;;;;0.75;0.63;;;;;;;;;;1026404;28;20360;-76
2023/05/21 00:01:53;;;;;;;0.90;0.55;;;;;;;;;;1027703;28;20026;-76
2023/05/21 00:02:23;;;;;;;0.17;0.17;;;;;;;;;;1027923;28;20477;-76
2023/05/21 00:02:54;;;;;;;2.88;0.77;;;;;;;;;;1023821;28;20031;-76
2023/05/21 00:03:26;;;;;;;0.20;0.20;;;;;;;;;;1023849;28;20019;-76
2023/05/21 00:03:58;;;;;;;0.45;0.45;;;;;;;;;;1027962;28;20023;-77
2023/05/21 00:04:30;;;;;;;2.13;1.95;;;;;;;;;;1027845;28;20034;-76
2023/05/21 00:05:01;;;;;;;0.45;0.45;;;;;;;;;;1027846;28;20530;-76
2023/05/21 00:05:31;;;;;;;0.20;0.20;;;;;;;;;;1027562;28;20034;-76
2023/05/21 00:06:02;;;;;;;1.88;0.75;;;;;;;;;;1027855;28;20050;-76
2023/05/21 00:06:34;;;;;;;1.75;0.52;;;;;;;;;;1023826;28;20023;-76
2023/05/21 00:07:05;;;;;;;0.90;0.90;;;;;;;;;;1027883;28;20026;-76
2023/05/21 00:07:36;;;;;;;0.32;0.32;;;;;;;;;;1023550;29;20031;-76
2023/05/21 00:08:06;;;;;;;0.43;0.35;;;;;;;;;;1024326;28;20521;-77
2023/05/21 00:08:37;;;;;;;0.28;0.10;;;;;;;;;;1025846;28;20020;-76
2023/05/21 00:09:08;;;;;;;0.25;0.17;;;;;;;;;;1026000;28;20137;-77
2023/05/21 00:09:38;;;;;;;0.28;0.20;;;;;;;;;;1027696;28;20069;-77
2023/05/21 00:10:09;;;;;;;0.15;0.15;;;;;;;;;;1028031;28;20121;-77
2023/05/21 00:10:39;;;;;;;0.10;0.10;;;;;;;;;;1027235;28;20031;-77
2023/05/21 00:11:10;;;;;;;0.32;0.25;;;;;;;;;;1026624;28;20051;-76
2023/05/21 00:11:41;;;;;;;0.65;0.28;;;;;;;;;;1027072;28;20076;-76
2023/05/21 00:12:11;;;;;;;0.85;0.50;;;;;;;;;;1028006;28;20026;-76
2023/05/21 00:12:42;;;;;;;0.10;0.10;;;;;;;;;;1027798;28;20023;-76
2023/05/21 00:13:12;;;;;;;1.98;0.65;;;;;;;;;;1027870;28;20015;-77
2023/05/21 00:13:43;;;;;;;0.10;0.10;;;;;;;;;;1027885;28;20093;-77
2023/05/21 00:14:13;;;;;;;0.57;0.57;;;;;;;;;;1028305;28;20395;-76
2023/05/21 00:14:44;;;;;;;0.10;0.10;;;;;;;;;;1027628;28;20550;-76
2023/05/21 00:15:14;;;;;;;0.47;0.38;;;;;;;;;;1027810;28;20033;-76
2023/05/21 00:15:45;;;;;;;2.83;0.55;;;;;;;;;;1027678;28;20502;-76
2023/05/21 00:16:15;;;;;;;0.10;0.10;;;;;;;;;;1027968;28;20031;-77
2023/05/21 00:16:46;;;;;;;0.40;0.40;;;;;;;;;;1027602;28;20065;-76
2023/05/21 00:17:17;;;;;;;1.15;0.40;;;;;;;;;;1027554;28;20030;-76
2023/05/21 00:17:47;;;;;;;0.17;0.17;;;;;;;;;;1027565;28;20023;-76
2023/05/21 00:18:18;;;;;;;0.45;0.45;;;;;;;;;;1027977;28;20586;-76
2023/05/21 00:18:48;;;;;;;0.30;0.30;;;;;;;;;;1023843;28;20459;-76
2023/05/21 00:19:19;;;;;;;1.08;0.45;;;;;;;;;;1027928;28;20026;-76
2023/05/21 00:19:50;;;;;;;0.57;0.50;;;;;;;;;;1027705;28;20113;-76
2023/05/21 00:20:22;;;;;;;1.85;0.65;;;;;;;;;;1027013;28;20109;-76
2023/05/21 00:20:53;;;;;;;1.58;0.65;;;;;;;;;;1027973;28;20069;-76
2023/05/21 00:21:24;;;;;;;0.22;0.22;;;;;;;;;;1027966;28;20078;-76
2023/05/21 00:21:56;;;;;;;0.10;0.10;;;;;;;;;;1027727;28;20023;-76
2023/05/21 00:22:26;;;;;;;0.30;0.30;;;;;;;;;;1027749;28;20305;-76
2023/05/21 00:22:58;;;;;;;6.45;1.20;;;;;;;;;;1027758;28;20502;-76
2023/05/21 00:23:31;;;;;;;0.20;0.20;;;;;;;;;;1027487;28;20375;-76
2023/05/21 00:24:01;;;;;;;1.20;0.32;;;;;;;;;;1028218;28;20548;-76
2023/05/21 00:24:32;;;;;;;0.10;0.10;;;;;;;;;;1028070;28;20038;-76
2023/05/21 00:25:03;;;;;;;1.70;0.55;;;;;;;;;;1028064;28;20061;-76
2023/05/21 00:25:33;;;;;;;0.25;0.25;;;;;;;;;;1027215;28;20018;-76
2023/05/21 00:26:04;;;;;;;2.92;0.52;;;;;;;;;;1026350;28;20399;-76
2023/05/21 00:26:34;;;;;;;0.80;0.63;;;;;;;;;;1025479;28;20398;-76
2023/05/21 00:27:05;;;;;;;1.25;0.80;;;;;;;;;;1025534;28;20014;-76
2023/05/21 00:27:36;;;;;;;0.52;0.52;;;;;;;;;;1027472;28;20089;-76
2023/05/21 00:28:06;;;;;;;0.30;0.30;;;;;;;;;;1027972;28;20041;-76
2023/05/21 00:28:37;;;;;;;0.00;0.00;;;;;;;;;;1027624;28;20030;-76
2023/05/21 00:29:07;;;;;;;0.40;0.30;;;;;;;;;;1027833;28;20018;-79
2023/05/21 00:29:38;;;;;;;0.20;0.20;;;;;;;;;;1026813;28;20027;-77
2023/05/21 00:30:08;;;;;;;0.47;0.47;;;;;;;;;;1027926;28;20114;-76
2023/05/21 00:30:39;;;;;;;0.30;0.30;;;;;;;;;;1027739;28;20121;-76
2023/05/21 00:31:10;;;;;;;0.50;0.50;;;;;;;;;;1026925;28;20029;-76
2023/05/21 00:31:40;;;;;;;0.63;0.60;;;;;;;;;;1027503;28;21209;-76
2023/05/21 00:32:11;;;;;;;0.57;0.57;;;;;;;;;;1028243;28;20023;-76
2023/05/21 00:32:42;;;;;;;0.10;0.10;;;;;;;;;;1026980;28;20101;-76
2023/05/21 00:33:13;;;;;;;0.10;0.10;;;;;;;;;;1031699;28;20030;-76
2023/05/21 00:33:43;;;;;;;0.70;0.22;;;;;;;;;;1027407;28;20171;-76
2023/05/21 00:34:14;;;;;;;0.63;0.63;;;;;;;;;;1023811;29;20086;-76
2023/05/21 00:34:44;;;;;;;1.92;1.08;;;;;;;;;;1023654;29;20027;-76
2023/05/21 00:35:15;;;;;;;1.70;0.98;;;;;;;;;;1023796;28;20475;-76
2023/05/21 00:35:45;;;;;;;0.98;0.70;;;;;;;;;;1027622;28;20545;-76
2023/05/21 00:36:16;;;;;;;0.75;0.75;;;;;;;;;;1028241;28;21848;-76
2023/05/21 00:36:47;;;;;;;6.07;0.40;;;;;;;;;;1027835;28;20034;-76
2023/05/21 00:37:17;;;;;;;1.02;0.73;;;;;;;;;;1027641;28;20023;-76
2023/05/21 00:37:48;;;;;;;4.90;1.75;;;;;;;;;;1027437;28;20027;-76
2023/05/21 00:38:19;;;;;;;0.50;0.40;;;;;;;;;;1027750;28;20078;-76
2023/05/21 00:38:50;;;;;;;1.55;0.95;;;;;;;;;;1025596;28;20019;-76
2023/05/21 00:39:20;;;;;;;1.25;0.90;;;;;;;;;;1027929;28;20031;-76
2023/05/21 00:39:51;;;;;;;0.50;0.50;;;;;;;;;;1027686;28;20030;-76
2023/05/21 00:40:21;;;;;;;4.68;2.08;;;;;;;;;;1025618;28;20364;-76
2023/05/21 00:40:52;;;;;;;1.17;0.90;;;;;;;;;;1023285;28;20034;-77
2023/05/21 00:41:22;;;;;;;0.45;0.45;;;;;;;;;;1023603;29;20027;-76
2023/05/21 00:41:55;;;;;;;1.35;0.75;;;;;;;;;;1023938;28;20118;-76
2023/05/21 00:42:26;;;;;;;0.20;0.20;;;;;;;;;;1024084;28;20023;-76
2023/05/21 00:42:57;;;;;;;2.78;1.15;;;;;;;;;;1027746;28;20026;-77
2023/05/21 00:43:27;;;;;;;0.43;0.40;;;;;;;;;;1023603;29;20023;-76
2023/05/21 00:43:59;;;;;;;7.75;1.15;;;;;;;;;;1023959;28;20023;-76
2023/05/21 00:44:32;;;;;;;4.10;2.17;;;;;;;;;;1023558;29;20078;-77
2023/05/21 00:45:04;;;;;;;0.98;0.77;;;;;;;;;;1024474;28;20060;-76
2023/05/21 00:45:35;;;;;;;1.58;1.48;;;;;;;;;;1023312;29;20511;-76
2023/05/21 00:46:10;;;;;;;1.65;1.02;;;;;;;;;;1024663;28;20066;-76
2023/05/21 00:46:43;;;;;;;0.73;0.73;;;;;;;;;;1027078;28;20023;-76
2023/05/21 00:47:13;;;;;;;1.52;0.68;;;;;;;;;;1027741;28;20752;-76
2023/05/21 00:47:44;;;;;;;1.35;0.73;;;;;;;;;;1027539;28;20034;-77
2023/05/21 00:48:15;;;;;;;0.50;0.50;;;;;;;;;;1027918;28;20730;-76
2023/05/21 00:48:46;;;;;;;2.90;0.63;;;;;;;;;;1027564;28;20037;-76
2023/05/21 00:49:16;;;;;;;3.67;1.98;;;;;;;;;;1027832;28;20443;-76
2023/05/21 00:49:47;;;;;;;1.48;1.38;;;;;;;;;;1027748;28;20050;-76
2023/05/21 00:50:18;;;;;;;9.55;0.85;;;;;;;;;;1028143;28;20053;-76
2023/05/21 00:50:49;;;;;;;2.92;1.27;;;;;;;;;;1027925;28;20027;-76
2023/05/21 00:51:20;;;;;;;1.60;0.52;;;;;;;;;;1028081;28;20031;-76
2023/05/21 00:51:51;;;;;;;0.85;0.85;;;;;;;;;;1027819;28;20033;-76
2023/05/21 00:52:25;;;;;;;1.50;1.30;;;;;;;;;;1027626;28;20158;-76
2023/05/21 00:52:56;;;;;;;0.40;0.40;;;;;;;;;;1027677;28;20031;-76
2023/05/21 00:53:26;;;;;;;0.55;0.55;;;;;;;;;;1027468;28;20022;-76
2023/05/21 00:53:57;;;;;;;1.95;0.80;;;;;;;;;;1027855;28;20142;-76
2023/05/21 00:54:29;;;;;;;1.10;0.95;;;;;;;;;;1027941;28;20019;-77
2023/05/21 00:54:59;;;;;;;1.27;0.57;;;;;;;;;;1027634;28;20031;-76
2023/05/21 00:55:30;;;;;;;0.10;0.10;;;;;;;;;;1027633;28;20035;-76
2023/05/21 00:56:01;;;;;;;0.10;0.10;;;;;;;;;;1027404;28;20033;-76
2023/05/21 00:56:32;;;;;;;0.47;0.40;;;;;;;;;;1027517;28;20113;-76
2023/05/21 00:57:02;;;;;;;0.55;0.55;;;;;;;;;;1027765;28;20033;-76
2023/05/21 00:57:33;;;;;;;1.23;0.65;;;;;;;;;;1027605;28;20406;-76
2023/05/21 00:58:04;;;;;;;3.05;1.08;;;;;;;;;;1028023;28;20022;-76
2023/05/21 00:58:34;;;;;;;3.45;0.93;;;;;;;;;;1027897;28;20030;-76
2023/05/21 00:59:05;;;;;;;4.00;1.05;;;;;;;;;;1027901;28;20035;-76
2023/05/21 00:59:35;;;;;;;0.25;0.25;;;;;;;;;;1027205;28;20029;-76
2023/05/21 01:00:07;;;;;;;1.77;1.27;;;;;;;;;;1027724;28;20026;-76
2023/05/21 01:00:39;;;;;;;5.05;1.33;;;;;;;;;;1027401;28;20086;-76
2023/05/21 01:01:12;;;;;;;2.35;1.25;;;;;;;;;;1027649;28;20075;-76
2023/05/21 01:01:44;;;;;;;0.80;0.52;;;;;;;;;;1027358;28;20026;-76
2023/05/21 01:02:16;;;;;;;1.38;0.88;;;;;;;;;;1027876;28;20121;-77
2023/05/21 01:02:48;;;;;;;1.25;1.15;;;;;;;;;;1027621;28;20046;-76
2023/05/21 01:03:19;;;;;;;1.67;0.85;;;;;;;;;;1028907;28;20486;-76
2023/05/21 01:03:51;;;;;;;1.75;1.15;;;;;;;;;;1028402;28;20015;-76
2023/05/21 01:04:25;;;;;;;5.53;1.73;;;;;;;;;;1027696;28;20138;-76
2023/05/21 01:04:55;;;;;;;1.10;1.00;;;;;;;;;;1027625;28;20035;-76
2023/05/21 01:05:28;;;;;;;4.20;1.70;;;;;;;;;;1027365;28;20023;-77
2023/05/21 01:05:59;;;;;;;2.13;1.63;;;;;;;;;;1027835;28;20114;-76
2023/05/21 01:06:33;;;;;;;1.40;0.77;;;;;;;;;;1027858;28;20014;-76
2023/05/21 01:07:05;;;;;;;4.55;2.25;;;;;;;;;;1027189;28;20642;-77
2023/05/21 01:07:37;;;;;;;4.47;2.95;;;;;;;;;;1027346;28;20021;-77
2023/05/21 01:08:09;;;;;;;6.35;3.35;;;;;;;;;;1023661;29;20114;-77
2023/05/21 01:08:40;;;;;;;4.13;2.65;;;;;;;;;;1023406;29;20019;-76
2023/05/21 01:09:11;;;;;;;4.45;2.20;;;;;;;;;;1024287;28;20038;-77
2023/05/21 01:09:42;;;;;;;4.43;3.28;;;;;;;;;;1027515;28;20025;-76
2023/05/21 01:10:12;;;;;;;3.83;0.75;;;;;;;;;;1028074;28;20035;-76
2023/05/21 01:10:43;;;;;;;2.78;1.67;;;;;;;;;;1027257;28;20062;-77
2023/05/21 01:11:13;;;;;;;0.98;0.82;;;;;;;;;;1027428;28;20026;-76
2023/05/21 01:11:46;;;;;;;0.90;0.60;;;;;;;;;;1027342;28;20022;-76
2023/05/21 01:12:17;;;;;;;7.38;2.22;;;;;;;;;;1027831;28;20065;-77
2023/05/21 01:12:48;;;;;;;5.97;2.05;;;;;;;;;;1027876;28;20058;-76
2023/05/21 01:13:21;;;;;;;2.53;1.85;;;;;;;;;;1027623;28;20022;-77
2023/05/21 01:13:51;;;;;;;1.90;0.90;;;;;;;;;;1026641;28;20480;-76
2023/05/21 01:14:23;;;;;;;1.58;1.48;;;;;;;;;;1027550;28;20111;-76
2023/05/21 01:14:53;;;;;;;1.08;1.00;;;;;;;;;;1027454;28;20078;-76
2023/05/21 01:15:24;;;;;;;3.00;1.20;;;;;;;;;;1027588;28;20030;-76
2023/05/21 01:15:57;;;;;;;2.90;1.77;;;;;;;;;;1027768;28;20384;-77
2023/05/21 01:16:27;;;;;;;2.70;1.55;;;;;;;;;;1027533;28;20553;-76
2023/05/21 01:17:00;;;;;;;3.90;1.98;;;;;;;;;;1027877;28;20033;-77
2023/05/21 01:17:32;;;;;;;5.57;2.65;;;;;;;;;;1027584;28;20462;-77
2023/05/21 01:18:03;;;;;;;1.13;1.02;;;;;;;;;;1028018;28;20026;-76
2023/05/21 01:18:36;;;;;;;2.70;1.55;;;;;;;;;;1026786;28;20027;-76
2023/05/21 01:19:09;;;;;;;2.20;0.90;;;;;;;;;;1027942;28;20050;-76
2023/05/21 01:19:40;;;;;;;0.47;0.45;;;;;;;;;;1027748;28;20057;-76
2023/05/21 01:20:11;;;;;;;1.73;1.13;;;;;;;;;;1028079;28;20030;-76
2023/05/21 01:20:46;;;;;;;3.78;2.15;;;;;;;;;;1027389;28;20176;-76
2023/05/21 01:21:17;;;;;;;2.00;0.93;;;;;;;;;;1027623;28;20023;-76
2023/05/21 01:21:49;;;;;;;1.08;0.95;;;;;;;;;;1027324;28;20023;-76
2023/05/21 01:22:20;;;;;;;4.00;2.25;;;;;;;;;;1026511;28;20447;-76
2023/05/21 01:22:52;;;;;;;8.13;1.23;;;;;;;;;;1027811;28;20177;-76
2023/05/21 01:23:22;;;;;;;1.08;0.90;;;;;;;;;;1027482;28;20073;-76
2023/05/21 01:23:53;;;;;;;2.78;1.60;;;;;;;;;;1027471;28;20511;-76
2023/05/21 01:24:23;;;;;;;4.50;1.52;;;;;;;;;;1027524;28;20446;-76
2023/05/21 01:24:54;;;;;;;2.33;1.63;;;;;;;;;;1027566;28;20474;-76
2023/05/21 01:25:24;;;;;;;2.45;1.40;;;;;;;;;;1027559;28;20031;-77
2023/05/21 01:25:55;;;;;;;0.47;0.47;;;;;;;;;;1026313;28;20117;-77
2023/05/21 01:26:27;;;;;;;3.92;1.60;;;;;;;;;;1023320;28;20391;-76
2023/05/21 01:26:58;;;;;;;0.47;0.40;;;;;;;;;;1023648;29;20097;-76
2023/05/21 01:27:28;;;;;;;0.35;0.35;;;;;;;;;;1023700;28;20023;-76
2023/05/21 01:27:59;;;;;;;1.90;1.55;;;;;;;;;;1028101;28;20399;-76
2023/05/21 01:28:31;;;;;;;1.77;1.45;;;;;;;;;;1027875;28;20474;-76
2023/05/21 01:29:02;;;;;;;1.70;1.60;;;;;;;;;;1027508;28;20425;-77
2023/05/21 01:29:32;;;;;;;0.77;0.65;;;;;;;;;;1027308;28;20026;-77
2023/05/21 01:30:03;;;;;;;2.63;1.05;;;;;;;;;;1023594;29;20023;-76
2023/05/21 01:30:34;;;;;;;0.88;0.77;;;;;;;;;;1023669;28;20023;-76
2023/05/21 01:31:10;;;;;;;1.52;1.42;;;;;;;;;;1023462;29;20052;-76
2023/05/21 01:31:55;;;;;;;2.80;1.55;;;;;;;;;;1023366;28;20030;-76
2023/05/21 01:32:32;;;;;;;4.38;1.65;;;;;;;;;;1027523;28;20019;-76
2023/05/21 01:33:04;;;;;;;9.75;1.08;;;;;;;;;;1027869;28;20453;-76
2023/05/21 01:33:39;;;;;;;1.83;1.02;;;;;;;;;;1027556;28;20113;-76
2023/05/21 01:34:11;;;;;;;2.50;1.60;;;;;;;;;;1026557;28;20034;-77
2023/05/21 01:34:49;;;;;;;2.78;1.38;;;;;;;;;;1027334;28;20037;-77
2023/05/21 01:35:21;;;;;;;6.00;0.77;;;;;;;;;;1022750;29;20483;-77
2023/05/21 01:36:31;;;;;;;1.15;0.93;;;;;;;;;;1025042;28;20446;-77
2023/05/21 01:37:11;;;;;;;0.80;0.50;;;;;;;;;;1016388;29;20035;-77
2023/05/21 01:37:51;;;;;;;1.65;1.33;;;;;;;;;;1018592;29;20027;-77
2023/05/21 01:38:24;;;;;;;3.72;0.90;;;;;;;;;;1018612;29;20019;-77
2023/05/21 01:39:15;;;;;;;2.03;1.05;;;;;;;;;;1018458;29;20055;-77
2023/05/21 01:39:48;;;;;;;0.85;0.85;;;;;;;;;;1018022;29;20582;-77
2023/05/21 01:40:24;;;;;;;3.03;1.38;;;;;;;;;;1018782;29;20020;-77
2023/05/21 01:40:57;;;;;;;3.95;1.23;;;;;;;;;;1017308;29;20063;-77
2023/05/21 01:41:29;;;;;;;1.85;1.35;;;;;;;;;;1018916;29;20484;-77
2023/05/21 01:42:02;;;;;;;2.58;1.17;;;;;;;;;;1019344;29;20024;-77
2023/05/21 01:42:34;;;;;;;0.73;0.73;;;;;;;;;;1019279;29;20023;-77
2023/05/21 01:43:05;;;;;;;0.30;0.30;;;;;;;;;;1029159;28;20121;-77
2023/05/21 01:43:37;;;;;;;0.35;0.35;;;;;;;;;;1027409;28;20033;-77
2023/05/21 01:44:07;;;;;;;0.28;0.28;;;;;;;;;;1027568;28;20042;-77
2023/05/21 01:44:39;;;;;;;3.20;1.23;;;;;;;;;;1023319;28;20538;-77
2023/05/21 01:45:10;;;;;;;1.02;0.93;;;;;;;;;;1023989;28;20027;-76
2023/05/21 01:45:41;;;;;;;1.20;0.75;;;;;;;;;;1026245;28;20497;-77
2023/05/21 01:46:13;;;;;;;0.93;0.93;;;;;;;;;;1023809;28;20517;-77
2023/05/21 01:46:44;;;;;;;3.92;2.50;;;;;;;;;;1027324;28;20034;-77
2023/05/21 01:47:15;;;;;;;3.85;2.65;;;;;;;;;;1027343;28;20105;-77
2023/05/21 01:47:48;;;;;;;1.20;1.10;;;;;;;;;;1026152;28;20030;-77
2023/05/21 01:48:18;;;;;;;1.38;0.68;;;;;;;;;;1027950;28;20019;-77
2023/05/21 01:48:49;;;;;;;0.90;0.52;;;;;;;;;;1027553;28;20019;-76
2023/05/21 01:49:20;;;;;;;2.00;1.00;;;;;;;;;;1027919;28;20065;-77
2023/05/21 01:49:51;;;;;;;1.55;0.57;;;;;;;;;;1027336;28;20109;-77
2023/05/21 01:50:25;;;;;;;2.25;0.55;;;;;;;;;;1027452;28;20520;-77
2023/05/21 01:50:57;;;;;;;0.30;0.30;;;;;;;;;;1027435;28;20483;-77
2023/05/21 01:51:28;;;;;;;0.00;0.00;;;;;;;;;;1023894;28;20066;-76
2023/05/21 01:51:58;;;;;;;0.05;0.05;;;;;;;;;;1023542;29;20054;-76
2023/05/21 01:52:29;;;;;;;0.52;0.43;;;;;;;;;;1019315;29;20047;-76
2023/05/21 01:53:04;;;;;;;0.70;0.30;;;;;;;;;;1017786;29;20472;-77
2023/05/21 01:53:37;;;;;;;0.08;0.08;;;;;;;;;;1022120;28;20633;-77
2023/05/21 01:54:08;;;;;;;0.20;0.20;;;;;;;;;;1025824;28;20031;-77
2023/05/21 01:54:38;;;;;;;0.00;0.00;;;;;;;;;;1027445;28;20018;-77
2023/05/21 01:55:09;;;;;;;0.10;0.10;;;;;;;;;;1027863;28;20026;-77
2023/05/21 01:55:40;;;;;;;0.10;0.10;;;;;;;;;;1027398;28;20433;-77
2023/05/21 01:56:11;;;;;;;1.45;1.35;;;;;;;;;;1027746;28;20557;-77
2023/05/21 01:56:41;;;;;;;0.52;0.52;;;;;;;;;;1027661;28;20038;-76
2023/05/21 01:57:12;;;;;;;0.10;0.10;;;;;;;;;;1027859;28;20070;-76
2023/05/21 01:57:42;;;;;;;0.80;0.80;;;;;;;;;;1027392;28;20030;-76
2023/05/21 01:58:14;;;;;;;0.22;0.20;;;;;;;;;;1028057;28;20082;-77
2023/05/21 01:58:45;;;;;;;0.10;0.10;;;;;;;;;;1026742;28;20475;-77
2023/05/21 01:59:16;;;;;;;0.10;0.10;;;;;;;;;;1027755;28;20030;-77
2023/05/21 01:59:46;;;;;;;1.27;1.02;;;;;;;;;;1027630;28;20030;-77
2023/05/21 02:00:17;;;;;;;13.32;0.80;;;;;;;;;;1027967;28;20025;-77
2023/05/21 02:00:49;;;;;;;1.05;1.00;;;;;;;;;;1027651;28;20081;-77
2023/05/21 02:01:20;;;;;;;1.23;1.08;;;;;;;;;;1027750;28;20025;-77
2023/05/21 02:01:50;;;;;;;0.63;0.50;;;;;;;;;;1027275;28;20029;-77
2023/05/21 02:02:21;;;;;;;7.18;0.85;;;;;;;;;;1025539;28;20047;-77
2023/05/21 02:02:52;;;;;;;0.10;0.10;;;;;;;;;;1027407;28;20022;-77
2023/05/21 02:03:24;;;;;;;0.03;0.03;;;;;;;;;;1027177;28;20081;-76
2023/05/21 02:03:56;;;;;;;0.40;0.40;;;;;;;;;;1027773;28;20352;-76
2023/05/21 02:04:26;;;;;;;0.55;0.20;;;;;;;;;;1027326;28;20034;-77
2023/05/21 02:04:57;;;;;;;0.98;0.75;;;;;;;;;;1027431;28;20046;-77
2023/05/21 02:05:27;;;;;;;0.00;0.00;;;;;;;;;;1027103;28;20022;-76
2023/05/21 02:05:58;;;;;;;1.92;0.63;;;;;;;;;;1027439;28;20023;-77
2023/05/21 02:06:30;;;;;;;0.73;0.50;;;;;;;;;;1027595;28;20030;-77
2023/05/21 02:07:01;;;;;;;0.30;0.30;;;;;;;;;;1027631;28;20019;-77
2023/05/21 02:07:32;;;;;;;0.57;0.57;;;;;;;;;;1027689;28;20019;-77
2023/05/21 02:08:04;;;;;;;0.70;0.70;;;;;;;;;;1027495;28;20093;-77
2023/05/21 02:08:34;;;;;;;0.20;0.20;;;;;;;;;;1027588;28;20571;-77
2023/05/21 02:09:05;;;;;;;0.28;0.20;;;;;;;;;;1027794;28;20030;-77
2023/05/21 02:09:35;;;;;;;0.17;0.17;;;;;;;;;;1026266;28;20026;-77
2023/05/21 02:10:06;;;;;;;0.15;0.15;;;;;;;;;;1027483;28;20022;-77
2023/05/21 02:10:37;;;;;;;1.88;0.52;;;;;;;;;;1027433;28;20141;-76
2023/05/21 02:11:07;;;;;;;1.35;0.30;;;;;;;;;;1024373;28;20018;-77
2023/05/21 02:11:38;;;;;;;0.30;0.30;;;;;;;;;;1029390;28;20413;-77
2023/05/21 02:12:08;;;;;;;0.00;0.00;;;;;;;;;;1029626;28;20115;-77
2023/05/21 02:12:38;;;;;;;0.10;0.10;;;;;;;;;;1029257;28;20022;-76
2023/05/21 02:13:09;;;;;;;0.00;0.00;;;;;;;;;;1027350;28;20054;-76
2023/05/21 02:13:40;;;;;;;0.75;0.63;;;;;;;;;;1027053;28;20050;-77
2023/05/21 02:14:12;;;;;;;0.95;0.32;;;;;;;;;;1027479;28;20027;-77
2023/05/21 02:14:45;;;;;;;1.55;0.30;;;;;;;;;;1026370;28;20154;-76
2023/05/21 02:15:18;;;;;;;0.80;0.80;;;;;;;;;;1027839;28;20018;-76
2023/05/21 02:15:50;;;;;;;0.20;0.20;;;;;;;;;;1027541;28;20022;-76
2023/05/21 02:16:21;;;;;;;0.82;0.55;;;;;;;;;;1027691;28;20023;-76
2023/05/21 02:16:51;;;;;;;0.30;0.30;;;;;;;;;;1027231;28;20050;-77
2023/05/21 02:17:23;;;;;;;0.65;0.63;;;;;;;;;;1027184;28;20029;-77
2023/05/21 02:17:54;;;;;;;0.10;0.08;;;;;;;;;;1023405;29;20527;-77
2023/05/21 02:18:25;;;;;;;0.75;0.75;;;;;;;;;;1023644;28;20594;-77
2023/05/21 02:18:56;;;;;;;0.57;0.57;;;;;;;;;;1027398;28;20163;-77
2023/05/21 02:19:27;;;;;;;0.20;0.20;;;;;;;;;;1027421;28;20085;-77
2023/05/21 02:20:06;;;;;;;0.40;0.40;;;;;;;;;;1027280;28;20148;-77
2023/05/21 02:20:36;;;;;;;2.55;1.23;;;;;;;;;;1023352;29;20099;-77
2023/05/21 02:21:06;;;;;;;0.50;0.43;;;;;;;;;;1022299;29;20533;-77
2023/05/21 02:21:37;;;;;;;0.77;0.77;;;;;;;;;;1023061;28;20065;-77
2023/05/21 02:22:07;;;;;;;0.08;0.08;;;;;;;;;;1023512;28;20023;-76
2023/05/21 02:22:38;;;;;;;1.05;0.75;;;;;;;;;;1023177;29;20019;-77
2023/05/21 02:23:09;;;;;;;0.40;0.38;;;;;;;;;;1023610;28;20069;-77
2023/05/21 02:23:40;;;;;;;0.08;0.08;;;;;;;;;;1027024;28;20427;-77
2023/05/21 02:24:11;;;;;;;3.33;0.55;;;;;;;;;;1027544;28;20019;-76
2023/05/21 02:24:41;;;;;;;0.20;0.20;;;;;;;;;;1027568;28;20501;-77
2023/05/21 02:25:13;;;;;;;0.10;0.10;;;;;;;;;;1027704;28;20468;-77
2023/05/21 02:25:44;;;;;;;0.25;0.22;;;;;;;;;;1027038;28;20489;-77
2023/05/21 02:26:16;;;;;;;0.30;0.30;;;;;;;;;;1027580;28;20027;-77
2023/05/21 02:26:49;;;;;;;0.63;0.20;;;;;;;;;;1027661;28;20031;-77
2023/05/21 02:27:19;;;;;;;0.60;0.47;;;;;;;;;;1027884;28;20410;-77
2023/05/21 02:27:52;;;;;;;1.25;0.50;;;;;;;;;;1027311;28;20031;-77
2023/05/21 02:28:22;;;;;;;1.00;0.55;;;;;;;;;;1027596;28;20018;-77
2023/05/21 02:28:54;;;;;;;0.63;0.63;;;;;;;;;;1027670;28;20130;-77
2023/05/21 02:29:24;;;;;;;17.10;0.57;;;;;;;;;;1023931;28;20045;-77
2023/05/21 02:29:55;;;;;;;0.25;0.25;;;;;;;;;;1023904;29;20034;-77
2023/05/21 02:30:25;;;;;;;1.02;0.50;;;;;;;;;;1023638;29;20027;-77
2023/05/21 02:30:56;;;;;;;2.05;0.73;;;;;;;;;;1023615;28;20143;-77
2023/05/21 02:31:26;;;;;;;0.20;0.20;;;;;;;;;;1027250;28;20035;-77
2023/05/21 02:31:57;;;;;;;2.97;1.75;;;;;;;;;;1027823;28;20482;-77
2023/05/21 02:32:27;;;;;;;0.03;0.03;;;;;;;;;;1027714;28;20058;-77
2023/05/21 02:32:58;;;;;;;0.40;0.20;;;;;;;;;;1027730;28;20025;-77
2023/05/21 02:33:28;;;;;;;0.50;0.50;;;;;;;;;;1027474;28;20023;-76
2023/05/21 02:33:58;;;;;;;4.47;0.82;;;;;;;;;;1027729;28;20034;-76
2023/05/21 02:34:33;;;;;;;0.20;0.17;;;;;;;;;;1027479;28;20035;-77
2023/05/21 02:35:04;;;;;;;1.83;1.17;;;;;;;;;;1028276;28;20448;-77
2023/05/21 02:35:35;;;;;;;0.32;0.32;;;;;;;;;;1027950;28;20399;-76
2023/05/21 02:36:11;;;;;;;0.30;0.20;;;;;;;;;;1028286;28;20125;-76
2023/05/21 02:36:42;;;;;;;0.55;0.55;;;;;;;;;;1027595;28;20117;-76
2023/05/21 02:37:12;;;;;;;1.67;0.85;;;;;;;;;;1028540;28;20025;-76
2023/05/21 02:37:43;;;;;;;1.33;0.65;;;;;;;;;;1028327;28;20062;-77
2023/05/21 02:38:18;;;;;;;0.85;0.70;;;;;;;;;;1028599;28;20470;-77
2023/05/21 02:38:48;;;;;;;0.20;0.15;;;;;;;;;;1027660;28;20037;-77
2023/05/21 02:39:19;;;;;;;0.80;0.80;;;;;;;;;;1028158;28;20030;-77
2023/05/21 02:39:49;;;;;;;0.80;0.55;;;;;;;;;;1027881;28;20031;-77
2023/05/21 02:40:20;;;;;;;0.38;0.30;;;;;;;;;;1028242;28;20014;-77
2023/05/21 02:40:50;;;;;;;0.52;0.52;;;;;;;;;;1026751;28;20077;-77
2023/05/21 02:41:22;;;;;;;2.15;1.73;;;;;;;;;;1028295;28;20022;-77
2023/05/21 02:41:52;;;;;;;6.18;1.33;;;;;;;;;;1028440;28;20505;-77
2023/05/21 02:42:22;;;;;;;3.97;0.68;;;;;;;;;;1028378;28;20061;-77
2023/05/21 02:42:53;;;;;;;19.52;1.50;;;;;;;;;;1028484;28;20065;-77
2023/05/21 02:43:23;;;;;;;0.22;0.22;;;;;;;;;;1028454;28;20077;-77
2023/05/21 02:43:54;;;;;;;0.90;0.55;;;;;;;;;;1027954;28;20480;-77
2023/05/21 02:44:24;;;;;;;1.60;0.60;;;;;;;;;;1026126;28;20116;-77
2023/05/21 02:44:55;;;;;;;0.60;0.55;;;;;;;;;;1026065;28;20073;-77
2023/05/21 02:45:26;;;;;;;0.90;0.80;;;;;;;;;;1025433;28;20026;-77
2023/05/21 02:45:56;;;;;;;0.40;0.40;;;;;;;;;;1028061;28;20021;-77
2023/05/21 02:46:26;;;;;;;0.63;0.63;;;;;;;;;;1028048;28;20121;-77
2023/05/21 02:46:57;;;;;;;3.28;0.32;;;;;;;;;;1027708;28;20054;-77
2023/05/21 02:47:27;;;;;;;4.05;1.83;;;;;;;;;;1027248;28;20025;-77
2023/05/21 02:47:58;;;;;;;1.83;0.63;;;;;;;;;;1027435;28;20113;-77
2023/05/21 02:48:28;;;;;;;0.00;0.00;;;;;;;;;;1028264;28;20509;-76
2023/05/21 02:48:59;;;;;;;0.75;0.75;;;;;;;;;;1028067;28;20137;-77
2023/05/21 02:49:29;;;;;;;1.08;0.43;;;;;;;;;;1028014;28;20067;-77
2023/05/21 02:50:00;;;;;;;2.25;0.60;;;;;;;;;;1028237;28;20026;-77
2023/05/21 02:50:31;;;;;;;0.38;0.38;;;;;;;;;;1024268;28;20030;-77
2023/05/21 02:51:01;;;;;;;17.20;1.90;;;;;;;;;;1027184;28;20025;-77
2023/05/21 02:51:32;;;;;;;2.25;1.63;;;;;;;;;;1027985;28;20529;-77
2023/05/21 02:52:02;;;;;;;4.03;0.95;;;;;;;;;;1024209;28;20542;-77
2023/05/21 02:52:33;;;;;;;1.55;0.88;;;;;;;;;;1024072;28;20114;-77
2023/05/21 02:53:03;;;;;;;0.30;0.30;;;;;;;;;;1023898;28;20034;-77
2023/05/21 02:53:34;;;;;;;0.70;0.30;;;;;;;;;;1022903;28;20455;-77
2023/05/21 02:54:04;;;;;;;0.93;0.73;;;;;;;;;;1028247;28;20089;-77
2023/05/21 02:54:35;;;;;;;0.95;0.57;;;;;;;;;;1028116;28;20035;-77
2023/05/21 02:55:05;;;;;;;0.82;0.82;;;;;;;;;;1028508;28;20027;-77
2023/05/21 02:55:36;;;;;;;1.52;1.15;;;;;;;;;;1028341;28;20029;-77
2023/05/21 02:56:06;;;;;;;0.75;0.40;;;;;;;;;;1028217;28;20031;-77
2023/05/21 02:56:37;;;;;;;1.05;0.90;;;;;;;;;;1028384;28;20105;-77
2023/05/21 02:57:07;;;;;;;0.28;0.28;;;;;;;;;;1028476;28;20034;-77
2023/05/21 02:57:38;;;;;;;0.47;0.30;;;;;;;;;;1028171;28;20023;-77
2023/05/21 02:58:08;;;;;;;0.30;0.22;;;;;;;;;;1028340;28;20193;-77
2023/05/21 02:58:39;;;;;;;3.25;0.68;;;;;;;;;;1027891;28;20105;-77
2023/05/21 02:59:09;;;;;;;0.28;0.17;;;;;;;;;;1028087;28;20026;-77
2023/05/21 02:59:40;;;;;;;0.47;0.38;;;;;;;;;;1027838;28;20045;-77
2023/05/21 03:00:11;;;;;;;0.40;0.40;;;;;;;;;;1028206;28;20061;-77
2023/05/21 03:00:41;;;;;;;0.75;0.50;;;;;;;;;;1028171;28;20054;-77
2023/05/21 03:01:12;;;;;;;0.55;0.50;;;;;;;;;;1032190;28;20022;-77
2023/05/21 03:01:43;;;;;;;0.20;0.20;;;;;;;;;;1031837;28;20879;-77
2023/05/21 03:02:14;;;;;;;0.08;0.08;;;;;;;;;;1028513;28;20035;-77
2023/05/21 03:02:44;;;;;;;0.00;0.00;;;;;;;;;;1028451;28;20030;-77
2023/05/21 03:03:15;;;;;;;8.13;1.23;;;;;;;;;;1028051;28;20529;-77
2023/05/21 03:03:45;;;;;;;0.60;0.60;;;;;;;;;;1023819;29;20376;-77
2023/05/21 03:04:17;;;;;;;1.45;0.95;;;;;;;;;;1024352;29;20061;-77
2023/05/21 03:04:47;;;;;;;0.10;0.10;;;;;;;;;;1022416;29;20063;-77
2023/05/21 03:05:18;;;;;;;0.50;0.17;;;;;;;;;;1026390;28;20030;-77
2023/05/21 03:05:49;;;;;;;0.00;0.00;;;;;;;;;;1027966;28;20021;-77
2023/05/21 03:06:19;;;;;;;1.13;0.65;;;;;;;;;;1024298;28;20067;-77
2023/05/21 03:06:53;;;;;;;2.05;0.63;;;;;;;;;;1028047;28;20037;-77
2023/05/21 03:07:24;;;;;;;0.38;0.38;;;;;;;;;;1024010;28;20131;-77
2023/05/21 03:07:54;;;;;;;0.30;0.28;;;;;;;;;;1025107;28;20038;-77
2023/05/21 03:08:25;;;;;;;1.23;0.95;;;;;;;;;;1024042;29;20019;-77